Aviation Digital Data Service (ADDS)

Output produced by METARs form (1322 UTC 23 August 2014)
found at http://www.aviationweather.gov/adds/metars/
 
KFIG 231309Z AUTO 05005KT 2SM BR OVC005 20/19 A3004 RMK AO2 T02000194
KFIG 231254Z AUTO 05004KT 1 1/2SM BR OVC004 19/19 A3004 RMK AO2 RAB04E41 SLP164 P0000 T01940194
KFIG 231154Z AUTO 02004KT 1SM BR OVC004 19/19 A3003 RMK AO2 SLP163 70016 T01940194 10194 20183 51006
KFIG 231111Z AUTO 05004KT 1 1/4SM BR OVC003 19/19 A3003 RMK AO2 T01890189
KFIG 231054Z AUTO 01004KT 1/2SM FG VV004 19/19 A3003 RMK AO2 SLP159 T01890189
KFIG 231052Z AUTO 01004KT 1/2SM FG BKN005 OVC008 19/19 A3003 RMK AO2
KFIG 231035Z AUTO 00000KT 1SM BR FEW002 BKN006 OVC011 19/19 A3003 RMK AO2 T01890189
KFIG 231017Z AUTO 04004KT 1 1/2SM BR SCT006 BKN011 OVC017 19/19 A3002 RMK AO2 T01890189
KFIG 231008Z AUTO 05004KT 1 1/2SM BR BKN004 OVC012 19/19 A3002 RMK AO2 T01890189
KFIG 231001Z AUTO 05005KT 3/4SM BR BKN004 OVC012 19/19 A3002 RMK AO2 T01890189
KFIG 230954Z AUTO 04004KT 1/4SM FG VV003 19/19 A3001 RMK AO2 SLP155 T01890189
KFIG 230854Z AUTO 00000KT 1/4SM FG VV002 19/19 A3001 RMK AO2 SLP151 T01890189 55004
KFIG 230847Z AUTO 00000KT 1/4SM FG VV002 19/19 A3000 RMK AO2 T01890189
KFIG 230815Z AUTO 01003KT 1/4SM FG VV004 19/19 A3000 RMK AO2 T01890189
KFIG 230754Z AUTO 04003KT 1/4SM FG VV002 19/19 A3000 RMK AO2 SLP151 T01890189
KFIG 230727Z AUTO 00000KT 1/4SM FG VV002 19/19 A3001 RMK AO2 T01890189
KFIG 230719Z AUTO 00000KT 1/4SM FG BKN004 OVC016 19/19 A3001 RMK AO2 T01890189
KFIG 230704Z AUTO 00000KT 1/4SM FG BKN008 BKN015 OVC042 19/19 A3001 RMK AO2 T01890189
KFIG 230701Z AUTO 00000KT 1/4SM FG SCT010 BKN015 OVC042 19/19 A3001 RMK AO2 T01890189
KFIG 230654Z AUTO 00000KT 1/2SM FG BKN015 OVC040 19/19 A3001 RMK AO2 SLP155 T01890189
KFIG 230642Z AUTO 02003KT 1/2SM FG BKN015 OVC040 19/19 A3001 RMK AO2 T01890189
KFIG 230616Z AUTO 36005KT 1/4SM FG FEW011 BKN016 OVC029 19/19 A3002 RMK AO2 T01890189
KFIG 230605Z AUTO 35003KT 1/2SM FG FEW018 OVC029 19/19 A3002 RMK AO2 T01940194
KFIG 230554Z AUTO 00000KT 1/4SM FG OVC029 19/19 A3002 RMK AO2 SLP156 60001 T01940194 10211 20183 58002
KFIG 230527Z AUTO 02003KT 1/4SM FG FEW005 OVC029 19/19 A3002 RMK AO2 T01890189
KFIG 230518Z AUTO 00000KT 1/4SM FG OVC029 19/19 A3002 RMK AO2 T01940194
KFIG 230508Z AUTO 03003KT 3/4SM BR FEW006 BKN026 OVC032 19/19 A3002 RMK AO2 T01940194
KFIG 230503Z AUTO 00000KT 1 1/2SM BR BKN026 OVC032 19/19 A3003 RMK AO2 T01940194
KFIG 230454Z AUTO 00000KT 3/4SM BR OVC024 19/19 A3003 RMK AO2 SLP159 T01940194 402440183
KFIG 230437Z AUTO 00000KT 1/2SM FG SCT007 OVC022 19/19 A3003 RMK AO2 T01940194
KFIG 230428Z AUTO 03003KT 1/2SM FG BKN007 OVC020 19/19 A3003 RMK AO2 T01940194
KFIG 230406Z AUTO 03004KT 1/4SM FG BKN007 OVC017 19/19 A3003 RMK AO2 T01890189
KFIG 230354Z AUTO 00000KT 1/4SM FG SCT007 OVC017 19/19 A3002 RMK AO2 SLP159 T01890189
KFIG 230345Z AUTO 00000KT 1/2SM FG FEW009 BKN017 19/19 A3002 RMK AO2 VIS M1/4V3 T01940194
KFIG 230342Z AUTO 00000KT 1SM BR FEW011 BKN017 19/19 A3002 RMK AO2 VIS 1/2V3 T01940194
KFIG 230328Z AUTO 00000KT 1/4SM FG FEW009 BKN017 BKN075 19/19 A3002 RMK AO2 T01940194
KFIG 230319Z AUTO 00000KT 1/4SM FG BKN016 BKN075 19/19 A3002 RMK AO2 T01940194
KFIG 230312Z AUTO 00000KT 3/4SM BR FEW016 BKN075 20/19 A3002 RMK AO2 T02000194
KFIG 230306Z AUTO 00000KT 2SM BR BKN075 20/20 A3002 RMK AO2 T02000200
KFIG 230254Z AUTO 00000KT 4SM BR OVC075 21/20 A3002 RMK AO2 SLP159 60001 T02060200 50007
KFIG 230240Z AUTO 00000KT 2 1/2SM BR SCT014 OVC075 20/20 A3002 RMK AO2 T02000200
KFIG 230231Z AUTO 00000KT 1 1/4SM BR SCT014 BKN075 OVC110 20/20 A3002 RMK AO2 T02000200
KFIG 230217Z AUTO 00000KT 3/4SM BR SCT010 BKN014 OVC110 20/20 A3002 RMK AO2 T02000200
KFIG 230211Z AUTO 00000KT 1SM BR SCT008 BKN080 OVC110 20/20 A3002 RMK AO2 T02000200
KFIG 230154Z AUTO 00000KT 1/4SM FG SCT009 BKN110 20/20 A3003 RMK AO2 RAE25 SLP159 P0000 T02000200
KFIG 230147Z AUTO 02004KT 1 1/4SM BR FEW005 BKN120 21/20 A3003 RMK AO2 VIS 1/4V3 RAE25 P0000 T02060200
KFIG 230122Z AUTO 00000KT 2 1/2SM -RA BR FEW055 FEW120 21/21 A3002 RMK AO2 P0000 T02060206
KFIG 230054Z AUTO 00000KT 6SM -RA BR FEW065 SCT095 BKN110 21/20 A3001 RMK AO2 RAB39 SLP152 P0001 T02110200
KFIG 222354Z AUTO 22003KT 6SM BR OVC110 22/20 A3000 RMK AO2 SLP150 60000 T02170200 10244 20217 53001
KFIG 222254Z AUTO 21004KT 7SM FEW100 23/19 A2999 RMK AO2 LTG DSNT N SLP148 T02280194
KFIG 222154Z AUTO 19006KT 10SM FEW018 24/21 A3000 RMK AO2 SLP147 T02440206
KFIG 222103Z AUTO 24005KT 10SM FEW014 SCT024 BKN085 24/20 A3000 RMK AO2 T02390200
KFIG 222054Z AUTO 22006KT 10SM SCT014 BKN024 BKN030 24/21 A3000 RMK AO2 SLP150 60000 T02390206 56007
KFIG 222047Z AUTO 21006KT 9SM SCT014 BKN024 BKN030 24/21 A3000 RMK AO2 T02390206
KFIG 222020Z AUTO 20004KT 8SM SCT010 BKN030 OVC035 23/21 A3000 RMK AO2 T02330206
KFIG 221954Z AUTO 00000KT 7SM BKN010 23/21 A3000 RMK AO2 RAE1859 SLP151 P0000 T02280206
KFIG 221951Z AUTO 00000KT 7SM BKN010 23/21 A3000 RMK AO2 RAE1859 P0000
KFIG 221921Z AUTO 21004KT 7SM SCT009 BKN110 22/20 A3001 RMK AO2 LTG DSNT S AND SW RAE1859 P0000 T02220200
KFIG 221907Z AUTO VRB03KT 7SM FEW010 SCT021 BKN120 23/21 A3001 RMK AO2 LTG DSNT S AND SW RAE1859 P0000 T02280211
KFIG 221854Z AUTO 20006KT 7SM -RA SCT018 BKN025 BKN120 22/21 A3002 RMK AO2 RAE08B16 SLP158 P0000 T02220211
KFIG 221820Z AUTO 21003KT 5SM -RA BR FEW007 OVC015 22/21 A3003 RMK AO2 LTG DSNT SW RAE08B16 P0000 T02170206
KFIG 221810Z AUTO 00000KT 6SM BR FEW008 BKN012 OVC019 22/21 A3004 RMK AO2 RAE08 P0000 T02170206
KFIG 221754Z AUTO 00000KT 4SM -RA BR BKN006 BKN011 OVC085 22/21 A3004 RMK AO2 RAB07 SLP163 P0000 60015 T02170211 10217 20194 58001
KFIG 221708Z AUTO 00000KT 6SM -RA BR BKN008 BKN026 OVC035 22/21 A3004 RMK AO2 RAB07 CIG 005V010 P0000 T02170206
KFIG 221654Z AUTO 00000KT 7SM FEW008 BKN032 OVC041 22/20 A3004 RMK AO2 RAE40 SLP165 P0003 T02170200
KFIG 221636Z AUTO 00000KT 4SM -RA BR FEW012 BKN030 OVC038 21/21 A3004 RMK AO2 P0003 T02110206
KFIG 221603Z AUTO 00000KT 4SM -RA BR SCT009 BKN025 OVC110 21/19 A3005 RMK AO2 P0001 T02060194
KFIG 221554Z AUTO 00000KT 2SM -RA BR FEW006 BKN041 OVC110 21/21 A3005 RMK AO2 SLP168 P0009 T02060206
KFIG 221550Z AUTO 19003KT 1 3/4SM -RA BR FEW006 BKN017 OVC060 21/21 A3004 RMK AO2 P0009
KFIG 221543Z AUTO 21004KT 1 1/4SM RA BR SCT008 BKN014 OVC038 21/21 A3004 RMK AO2 P0009 T02060206
KFIG 221535Z AUTO 22003KT 2 1/2SM RA BR FEW008 BKN013 OVC037 21/20 A3005 RMK AO2 P0007 T02060200
KFIG 221529Z AUTO 00000KT 7SM -RA SCT012 BKN022 OVC038 21/19 A3005 RMK AO2 P0004 T02060194
KFIG 221514Z AUTO 00000KT 3SM -RA BR FEW015 OVC034 21/20 A3005 RMK AO2 P0004 T02060200
KFIG 221501Z AUTO 20003KT 1 3/4SM RA BR FEW024 OVC033 21/20 A3005 RMK AO2 P0003 T02060200
KFIG 221459Z AUTO 19004KT 3SM -RA BR FEW024 OVC033 21/20 A3005 RMK AO2 P0001 T02060200
KFIG 221449Z AUTO 19003KT 2SM -RA BR FEW007 SCT026 OVC033 21/20 A3005 RMK AO2 RAB00E12B21 SLP168 P0003 60003 T02110200 53002
KFIG 221448Z AUTO 18003KT 2SM -RA BR FEW007 SCT026 OVC033 21/20 A3005 RMK AO2 RAB00E12B21 P0003
KFIG 221354Z AUTO 18003KT 8SM FEW007 BKN017 OVC033 22/20 A3005 RMK AO2 RAE1255 SLP166 P0000 T02170200
KFIG 221329Z AUTO 00000KT 5SM BR FEW004 BKN015 OVC024 21/20 A3005 RMK AO2 RAE1255 P0000 T02110200
KFIG 221319Z AUTO 00000KT 4SM BR SCT004 BKN009 OVC024 21/20 A3005 RMK AO2 RAE1255 CIG 008V011 P0000 T02060200
KFIG 221254Z AUTO 00000KT 3SM -RA BR OVC003 21/20 A3005 RMK AO2 RAB39 CIG 002V006 SLP168 P0000 T02060200
KFIG 221247Z AUTO 00000KT 2SM -RA BR OVC003 21/20 A3004 RMK AO2 RAB39 P0000 T02060200
KFIG 221234Z AUTO 00000KT 1 3/4SM BR OVC003 20/20 A3005 RMK AO2 T02000200
KFIG 221216Z AUTO 03003KT 3/4SM BR OVC003 20/19 A3005 RMK AO2 T02000194
KFIG 221200Z AUTO 00000KT 2SM BR BKN002 OVC024 20/20 A3004 RMK AO2 T02000200
KFIG 221154Z AUTO 00000KT 1 1/2SM BR BKN003 OVC022 20/20 A3004 RMK AO2 SLP166 70086 T02000200 10200 20183 53012
KFIG 221143Z AUTO 00000KT 1SM BR BKN003 BKN013 OVC022 20/19 A3004 RMK AO2 T02000194
KFIG 221137Z AUTO 00000KT 1/2SM FG SCT003 BKN013 OVC022 19/19 A3004 RMK AO2 T01940194
KFIG 221125Z AUTO 00000KT 3/4SM BR BKN003 BKN013 OVC033 19/19 A3004 RMK AO2 T01940194
KFIG 221114Z AUTO 00000KT 1 1/4SM BR SCT003 BKN013 OVC032 19/19 A3004 RMK AO2 T01940194
KFIG 221109Z AUTO 00000KT 3/4SM BR BKN003 BKN025 OVC032 19/19 A3003 RMK AO2 T01940194
KFIG 221054Z AUTO 00000KT M1/4SM FG FEW003 OVC024 19/19 A3003 RMK AO2 SLP163 T01890189
KFIG 221045Z AUTO 35003KT 1/4SM FG FEW004 OVC024 19/19 A3003 RMK AO2 T01890189
KFIG 221014Z AUTO 00000KT 1SM BR SCT002 OVC023 19/19 A3002 RMK AO2 T01940194
KFIG 220958Z AUTO 00000KT 3/4SM BR BKN002 OVC021 19/19 A3002 RMK AO2 T01940194
KFIG 220954Z AUTO 00000KT 1 1/4SM BR SCT002 OVC022 19/19 A3001 RMK AO2 SLP157 T01940194
KFIG 220938Z AUTO 22003KT 1 3/4SM BR FEW001 OVC021 19/19 A3001 RMK AO2 T01940194
KFIG 220911Z AUTO 21003KT 2 1/2SM BR FEW002 OVC021 19/19 A3001 RMK AO2 T01940194
KFIG 220854Z AUTO 20003KT 1 1/4SM BR SCT002 OVC023 19/19 A3001 RMK AO2 SLP154 T01940194 58008
KFIG 220839Z AUTO 00000KT 1SM BR FEW002 OVC023 19/19 A3001 RMK AO2 T01940194
KFIG 220825Z AUTO 18003KT 1 1/2SM BR BKN025 OVC032 19/19 A3001 RMK AO2 T01940194
KFIG 220816Z AUTO 19003KT 2SM BR FEW002 BKN027 OVC032 19/19 A3001 RMK AO2 T01940194
KFIG 220807Z AUTO 00000KT 3SM BR FEW002 OVC030 19/19 A3002 RMK AO2 T01940194
KFIG 220754Z AUTO 21003KT 3SM BR FEW015 BKN028 OVC032 19/19 A3002 RMK AO2 SLP159 T01940194
KFIG 220746Z AUTO 21004KT 3SM BR SCT013 BKN026 OVC030 19/19 A3003 RMK AO2 T01940194
KFIG 220734Z AUTO 20003KT 2SM BR BKN014 OVC024 19/19 A3003 RMK AO2 T01940194
KFIG 220728Z AUTO 19003KT 1 1/2SM BR SCT012 OVC024 19/19 A3002 RMK AO2 T01940194
KFIG 220722Z AUTO 20004KT 2SM BR BKN012 OVC022 19/19 A3003 RMK AO2 T01940194
KFIG 220703Z AUTO 22005KT 4SM BR SCT013 OVC024 19/19 A3003 RMK AO2 T01940194
KFIG 220654Z AUTO 24004KT 3SM BR BKN013 OVC026 19/19 A3003 RMK AO2 SLP162 T01890189
KFIG 220650Z AUTO 23004KT 3SM BR BKN013 BKN020 OVC026 19/19 A3003 RMK AO2
KFIG 220641Z AUTO 22003KT 1 3/4SM BR OVC012 19/19 A3003 RMK AO2 T01890189
KFIG 220620Z AUTO 16003KT 2 1/2SM BR OVC012 19/19 A3003 RMK AO2 VIS 2V3 T01890189
KFIG 220554Z AUTO 16003KT 1 1/2SM BR BKN013 BKN120 19/18 A3003 RMK AO2 RAE0458 SLP163 P0000 60000 T01890183 10189 20178 58006
KFIG 220531Z AUTO 00000KT 1SM BR BKN013 OVC100 19/19 A3004 RMK AO2 RAE0458 P0000 T01890189
KFIG 220510Z AUTO 22005KT 2 1/2SM BR BKN013 OVC100 19/19 A3005 RMK AO2 RAE0458 P0000 T01890189
KFIG 220501Z AUTO 21005KT 3SM BR OVC013 19/19 A3005 RMK AO2 RAE0458 P0000 T01890189
KFIG 220454Z AUTO 21004KT 2 1/2SM -RA BR OVC013 19/19 A3005 RMK AO2 RAB43 SLP167 P0000 T01890189 402610172
KFIG 220433Z AUTO 21004KT 2 1/2SM BR BKN014 BKN023 BKN031 19/19 A3005 RMK AO2 T01890189
KFIG 220424Z AUTO 21004KT 3SM BR BKN014 BKN023 BKN075 19/19 A3005 RMK AO2 T01890189
KFIG 220354Z AUTO 00000KT 2 1/2SM BR FEW004 SCT010 OVC013 18/18 A3005 RMK AO2 VIS 1 3/4V3 SLP167 T01830183
KFIG 220350Z AUTO 00000KT 1 1/4SM BR FEW004 OVC013 18/18 A3005 RMK AO2
KFIG 220337Z AUTO 00000KT 1/2SM FG SCT004 OVC011 18/18 A3005 RMK AO2 T01830183
KFIG 220318Z AUTO 00000KT 1/4SM FG VV006 18/18 A3005 RMK AO2 T01830183
KFIG 220254Z AUTO 00000KT 1/4SM FG BKN004 OVC012 18/18 A3005 RMK AO2 SLP168 T01830183 51008
KFIG 220227Z AUTO 00000KT 1/4SM FG OVC012 19/19 A3005 RMK AO2 T01890189
KFIG 220218Z AUTO 00000KT 3/4SM BR OVC014 19/19 A3005 RMK AO2 T01890189
KFIG 220213Z AUTO 00000KT 3SM BR OVC014 19/19 A3005 RMK AO2 T01890189
KFIG 220208Z AUTO 00000KT 2 1/2SM BR BKN016 OVC065 19/19 A3005 RMK AO2 T01890189
KFIG 220156Z AUTO 18004KT 1 3/4SM BR SCT016 BKN025 OVC075 19/19 A3005 RMK AO2 T01890189
KFIG 220154Z AUTO 17003KT 2SM BR SCT016 BKN032 OVC080 19/19 A3005 RMK AO2 SLP169 T01890189
KFIG 220141Z AUTO 00000KT 2SM BR FEW003 SCT026 BKN075 19/19 A3005 RMK AO2 T01890189
KFIG 220131Z AUTO 11003KT 1 3/4SM BR SCT003 BKN026 BKN033 19/19 A3005 RMK AO2 T01890189